sensor_id;sensor_type;location;lat;lon;timestamp;pressure;altitude;pressure_sealevel;temperature;humidity
59650;BME280;46162;57.568;25.814;2023-09-12T00:01:29;100804.28;;;12.12;100.00
59650;BME280;46162;57.568;25.814;2023-09-12T00:04:00;100803.72;;;12.09;100.00
59650;BME280;46162;57.568;25.814;2023-09-12T00:06:28;100803.44;;;12.12;100.00
59650;BME280;46162;57.568;25.814;2023-09-12T00:08:58;100803.25;;;12.13;100.00
59650;BME280;46162;57.568;25.814;2023-09-12T00:11:27;100805.25;;;12.11;100.00
59650;BME280;46162;57.568;25.814;2023-09-12T00:13:56;100801.88;;;12.09;100.00
59650;BME280;46162;57.568;25.814;2023-09-12T00:16:25;100803.56;;;12.10;100.00
59650;BME280;46162;57.568;25.814;2023-09-12T00:18:53;100806.66;;;12.15;100.00
59650;BME280;46162;57.568;25.814;2023-09-12T00:21:22;100803.81;;;12.17;100.00
59650;BME280;46162;57.568;25.814;2023-09-12T00:23:51;100807.59;;;12.06;100.00
59650;BME280;46162;57.568;25.814;2023-09-12T00:26:21;100807.97;;;12.11;100.00
59650;BME280;46162;57.568;25.814;2023-09-12T00:28:50;100804.09;;;12.14;100.00
59650;BME280;46162;57.568;25.814;2023-09-12T00:31:20;100803.91;;;12.07;100.00
59650;BME280;46162;57.568;25.814;2023-09-12T00:33:48;100795.78;;;12.07;100.00
59650;BME280;46162;57.568;25.814;2023-09-12T00:36:17;100797.25;;;12.01;100.00
59650;BME280;46162;57.568;25.814;2023-09-12T00:38:46;100796.25;;;12.02;100.00
59650;BME280;46162;57.568;25.814;2023-09-12T00:41:14;100802.66;;;12.01;100.00
59650;BME280;46162;57.568;25.814;2023-09-12T00:43:44;100802.84;;;12.00;100.00
59650;BME280;46162;57.568;25.814;2023-09-12T00:46:18;100800.13;;;12.00;100.00
59650;BME280;46162;57.568;25.814;2023-09-12T00:48:48;100802.59;;;11.93;100.00
59650;BME280;46162;57.568;25.814;2023-09-12T00:51:18;100800.38;;;11.89;100.00
59650;BME280;46162;57.568;25.814;2023-09-12T00:53:49;100797.84;;;11.87;100.00
59650;BME280;46162;57.568;25.814;2023-09-12T00:56:17;100800.38;;;11.89;100.00
59650;BME280;46162;57.568;25.814;2023-09-12T00:58:48;100802.66;;;11.83;100.00
59650;BME280;46162;57.568;25.814;2023-09-12T01:01:18;100807.50;;;11.90;100.00
59650;BME280;46162;57.568;25.814;2023-09-12T01:03:48;100804.63;;;11.91;100.00
59650;BME280;46162;57.568;25.814;2023-09-12T01:06:19;100809.09;;;12.00;100.00
59650;BME280;46162;57.568;25.814;2023-09-12T01:08:50;100811.66;;;12.02;100.00
59650;BME280;46162;57.568;25.814;2023-09-12T01:11:17;100810.78;;;12.01;100.00
59650;BME280;46162;57.568;25.814;2023-09-12T01:13:47;100811.66;;;12.02;100.00
59650;BME280;46162;57.568;25.814;2023-09-12T01:16:16;100803.81;;;12.17;100.00
59650;BME280;46162;57.568;25.814;2023-09-12T01:18:45;100807.38;;;12.25;100.00
59650;BME280;46162;57.568;25.814;2023-09-12T01:21:34;100813.66;;;12.26;100.00
59650;BME280;46162;57.568;25.814;2023-09-12T01:24:32;100811.31;;;12.31;100.00
59650;BME280;46162;57.568;25.814;2023-09-12T01:27:19;100811.47;;;12.30;100.00
59650;BME280;46162;57.568;25.814;2023-09-12T01:29:53;100803.38;;;12.30;100.00
59650;BME280;46162;57.568;25.814;2023-09-12T01:32:24;100805.97;;;12.39;100.00
59650;BME280;46162;57.568;25.814;2023-09-12T01:34:53;100799.56;;;12.48;100.00
59650;BME280;46162;57.568;25.814;2023-09-12T01:37:22;100800.44;;;12.49;100.00
59650;BME280;46162;57.568;25.814;2023-09-12T01:39:51;100803.97;;;12.50;100.00
59650;BME280;46162;57.568;25.814;2023-09-12T01:42:22;100794.00;;;12.58;100.00
59650;BME280;46162;57.568;25.814;2023-09-12T01:44:55;100800.13;;;12.60;100.00
59650;BME280;46162;57.568;25.814;2023-09-12T01:47:25;100793.03;;;12.59;100.00
59650;BME280;46162;57.568;25.814;2023-09-12T01:49:56;100797.59;;;12.59;100.00
59650;BME280;46162;57.568;25.814;2023-09-12T01:52:27;100796.06;;;12.56;100.00
59650;BME280;46162;57.568;25.814;2023-09-12T01:54:56;100794.31;;;12.47;100.00
59650;BME280;46162;57.568;25.814;2023-09-12T01:57:26;100796.84;;;12.48;100.00
59650;BME280;46162;57.568;25.814;2023-09-12T01:59:55;100788.91;;;12.47;100.00
59650;BME280;46162;57.568;25.814;2023-09-12T02:02:23;100798.72;;;12.48;100.00
59650;BME280;46162;57.568;25.814;2023-09-12T02:05:02;100794.13;;;12.48;100.00
59650;BME280;46162;57.568;25.814;2023-09-12T02:07:38;100799.56;;;12.48;100.00
59650;BME280;46162;57.568;25.814;2023-09-12T02:10:08;100792.59;;;12.46;100.00
59650;BME280;46162;57.568;25.814;2023-09-12T02:12:39;100802.94;;;12.51;100.00
59650;BME280;46162;57.568;25.814;2023-09-12T02:15:08;100794.69;;;12.52;100.00
59650;BME280;46162;57.568;25.814;2023-09-12T02:17:37;100791.31;;;12.58;100.00
59650;BME280;46162;57.568;25.814;2023-09-12T02:20:08;100791.63;;;12.55;100.00
59650;BME280;46162;57.568;25.814;2023-09-12T02:22:37;100783.50;;;12.55;100.00
59650;BME280;46162;57.568;25.814;2023-09-12T02:25:07;100785.59;;;12.61;100.00
59650;BME280;46162;57.568;25.814;2023-09-12T02:27:35;100778.78;;;12.57;100.00
59650;BME280;46162;57.568;25.814;2023-09-12T02:30:07;100776.91;;;12.50;100.00
59650;BME280;46162;57.568;25.814;2023-09-12T02:32:36;100766.53;;;12.45;100.00
59650;BME280;46162;57.568;25.814;2023-09-12T02:35:05;100769.59;;;12.42;100.00
59650;BME280;46162;57.568;25.814;2023-09-12T02:37:34;100765.13;;;12.33;100.00
59650;BME280;46162;57.568;25.814;2023-09-12T02:40:03;100760.69;;;12.23;100.00
59650;BME280;46162;57.568;25.814;2023-09-12T02:42:33;100761.00;;;12.20;100.00
59650;BME280;46162;57.568;25.814;2023-09-12T02:45:03;100756.25;;;12.14;100.00
59650;BME280;46162;57.568;25.814;2023-09-12T02:47:33;100747.53;;;12.02;100.00
59650;BME280;46162;57.568;25.814;2023-09-12T02:50:02;100753.19;;;12.09;100.00
59650;BME280;46162;57.568;25.814;2023-09-12T02:52:31;100757.53;;;12.02;100.00
59650;BME280;46162;57.568;25.814;2023-09-12T02:54:59;100745.63;;;11.95;100.00
59650;BME280;46162;57.568;25.814;2023-09-12T02:57:28;100758.94;;;11.88;100.00
59650;BME280;46162;57.568;25.814;2023-09-12T02:59:58;100765.09;;;11.98;100.00
59650;BME280;46162;57.568;25.814;2023-09-12T03:02:27;100762.03;;;11.93;100.00
59650;BME280;46162;57.568;25.814;2023-09-12T03:04:58;100750.56;;;11.81;100.00
59650;BME280;46162;57.568;25.814;2023-09-12T03:07:27;100754.25;;;11.72;100.00
59650;BME280;46162;57.568;25.814;2023-09-12T03:09:56;100756.88;;;11.64;100.00
59650;BME280;46162;57.568;25.814;2023-09-12T03:12:24;100762.28;;;11.64;100.00
59650;BME280;46162;57.568;25.814;2023-09-12T03:14:53;100755.56;;;11.68;100.00
59650;BME280;46162;57.568;25.814;2023-09-12T03:17:22;100755.88;;;11.65;100.00
59650;BME280;46162;57.568;25.814;2023-09-12T03:19:51;100752.81;;;11.60;100.00
59650;BME280;46162;57.568;25.814;2023-09-12T03:22:22;100753.41;;;11.54;100.00
59650;BME280;46162;57.568;25.814;2023-09-12T03:24:52;100767.09;;;11.52;100.00
59650;BME280;46162;57.568;25.814;2023-09-12T03:27:22;100757.97;;;11.53;100.00
59650;BME280;46162;57.568;25.814;2023-09-12T03:29:51;100772.91;;;11.57;100.00
59650;BME280;46162;57.568;25.814;2023-09-12T03:32:20;100763.25;;;11.55;100.00
59650;BME280;46162;57.568;25.814;2023-09-12T03:34:49;100771.19;;;11.56;100.00
59650;BME280;46162;57.568;25.814;2023-09-12T03:37:18;100767.16;;;11.60;100.00
59650;BME280;46162;57.568;25.814;2023-09-12T03:39:48;100774.81;;;11.65;100.00
59650;BME280;46162;57.568;25.814;2023-09-12T03:42:17;100778.88;;;11.69;100.00
59650;BME280;46162;57.568;25.814;2023-09-12T03:44:45;100785.22;;;11.78;100.00
59650;BME280;46162;57.568;25.814;2023-09-12T03:47:14;100785.59;;;11.83;100.00
59650;BME280;46162;57.568;25.814;2023-09-12T03:49:43;100794.50;;;11.93;100.00
59650;BME280;46162;57.568;25.814;2023-09-12T03:52:11;100795.69;;;11.99;100.00
59650;BME280;46162;57.568;25.814;2023-09-12T03:54:40;100796.94;;;12.04;100.00
59650;BME280;46162;57.568;25.814;2023-09-12T03:57:11;100795.47;;;12.10;100.00
59650;BME280;46162;57.568;25.814;2023-09-12T03:59:39;100793.59;;;12.11;100.00
59650;BME280;46162;57.568;25.814;2023-09-12T04:02:08;100786.38;;;12.19;100.00
59650;BME280;46162;57.568;25.814;2023-09-12T04:04:37;100786.38;;;12.19;100.00
59650;BME280;46162;57.568;25.814;2023-09-12T04:07:06;100787.75;;;12.23;100.00
59650;BME280;46162;57.568;25.814;2023-09-12T04:09:35;100793.00;;;12.25;100.00
59650;BME280;46162;57.568;25.814;2023-09-12T04:12:04;100801.66;;;12.29;100.00
59650;BME280;46162;57.568;25.814;2023-09-12T04:14:35;100795.94;;;12.32;100.00
59650;BME280;46162;57.568;25.814;2023-09-12T04:17:04;100797.28;;;12.36;100.00
59650;BME280;46162;57.568;25.814;2023-09-12T04:19:38;100794.28;;;12.39;100.00
59650;BME280;46162;57.568;25.814;2023-09-12T04:22:07;100799.38;;;12.42;100.00
59650;BME280;46162;57.568;25.814;2023-09-12T04:24:36;100789.91;;;12.46;100.00
59650;BME280;46162;57.568;25.814;2023-09-12T04:27:05;100790.25;;;12.51;100.00
59650;BME280;46162;57.568;25.814;2023-09-12T04:29:35;100780.28;;;12.52;100.00
59650;BME280;46162;57.568;25.814;2023-09-12T04:32:05;100788.94;;;12.55;100.00
59650;BME280;46162;57.568;25.814;2023-09-12T04:34:34;100786.91;;;12.57;100.00
59650;BME280;46162;57.568;25.814;2023-09-12T04:37:03;100792.00;;;12.60;100.00
59650;BME280;46162;57.568;25.814;2023-09-12T04:39:34;100788.28;;;12.61;100.00
59650;BME280;46162;57.568;25.814;2023-09-12T04:42:03;100789.50;;;12.67;100.00
59650;BME280;46162;57.568;25.814;2023-09-12T04:44:36;100781.53;;;12.65;100.00
59650;BME280;46162;57.568;25.814;2023-09-12T04:47:05;100788.66;;;12.66;100.00
59650;BME280;46162;57.568;25.814;2023-09-12T04:49:34;100787.63;;;12.67;100.00
59650;BME280;46162;57.568;25.814;2023-09-12T04:52:03;100782.22;;;12.67;100.00
59650;BME280;46162;57.568;25.814;2023-09-12T04:54:32;100790.34;;;12.67;100.00
59650;BME280;46162;57.568;25.814;2023-09-12T04:57:01;100785.97;;;12.75;100.00
59650;BME280;46162;57.568;25.814;2023-09-12T04:59:30;100781.41;;;12.75;100.00
59650;BME280;46162;57.568;25.814;2023-09-12T05:02:00;100773.13;;;12.77;100.00
59650;BME280;46162;57.568;25.814;2023-09-12T05:04:29;100772.09;;;12.78;100.00
59650;BME280;46162;57.568;25.814;2023-09-12T05:06:59;100776.19;;;12.82;100.00
59650;BME280;46162;57.568;25.814;2023-09-12T05:09:28;100773.13;;;12.85;100.00
59650;BME280;46162;57.568;25.814;2023-09-12T05:11:57;100769.09;;;12.89;100.00
59650;BME280;46162;57.568;25.814;2023-09-12T05:14:26;100767.41;;;12.96;100.00
59650;BME280;46162;57.568;25.814;2023-09-12T05:16:55;100772.16;;;13.02;100.00
59650;BME280;46162;57.568;25.814;2023-09-12T05:19:25;100768.13;;;13.06;100.00
59650;BME280;46162;57.568;25.814;2023-09-12T05:21:54;100767.78;;;13.09;100.00
59650;BME280;46162;57.568;25.814;2023-09-12T05:24:22;100772.19;;;13.19;100.00
59650;BME280;46162;57.568;25.814;2023-09-12T05:26:51;100767.81;;;13.26;100.00
59650;BME280;46162;57.568;25.814;2023-09-12T05:29:20;100761.38;;;13.35;100.00
59650;BME280;46162;57.568;25.814;2023-09-12T05:31:49;100766.84;;;13.43;100.00
59650;BME280;46162;57.568;25.814;2023-09-12T05:34:18;100766.84;;;13.51;100.00
59650;BME280;46162;57.568;25.814;2023-09-12T05:36:48;100768.53;;;13.61;100.00
59650;BME280;46162;57.568;25.814;2023-09-12T05:39:16;100767.00;;;13.66;100.00
59650;BME280;46162;57.568;25.814;2023-09-12T05:41:46;100772.44;;;13.83;100.00
59650;BME280;46162;57.568;25.814;2023-09-12T05:44:15;100772.75;;;13.96;100.00
59650;BME280;46162;57.568;25.814;2023-09-12T05:46:46;100771.03;;;14.03;100.00
59650;BME280;46162;57.568;25.814;2023-09-12T05:49:15;100765.47;;;14.05;100.00
59650;BME280;46162;57.568;25.814;2023-09-12T05:51:43;100776.44;;;14.19;100.00
59650;BME280;46162;57.568;25.814;2023-09-12T05:54:13;100768.06;;;14.37;100.00
59650;BME280;46162;57.568;25.814;2023-09-12T05:56:42;100768.91;;;14.54;100.00
59650;BME280;46162;57.568;25.814;2023-09-12T05:59:11;100774.47;;;14.61;100.00
59650;BME280;46162;57.568;25.814;2023-09-12T06:01:40;100767.28;;;14.76;100.00
59650;BME280;46162;57.568;25.814;2023-09-12T06:04:08;100772.50;;;14.86;100.00
59650;BME280;46162;57.568;25.814;2023-09-12T06:06:37;100769.00;;;15.00;100.00
59650;BME280;46162;57.568;25.814;2023-09-12T06:09:06;100756.66;;;15.21;100.00
59650;BME280;46162;57.568;25.814;2023-09-12T06:11:37;100767.59;;;15.36;100.00
59650;BME280;46162;57.568;25.814;2023-09-12T06:14:06;100760.44;;;15.58;100.00
59650;BME280;46162;57.568;25.814;2023-09-12T06:16:35;100759.78;;;15.79;100.00
59650;BME280;46162;57.568;25.814;2023-09-12T06:19:04;100747.69;;;15.81;100.00
59650;BME280;46162;57.568;25.814;2023-09-12T06:21:32;100746.75;;;15.89;100.00
59650;BME280;46162;57.568;25.814;2023-09-12T06:24:14;100744.81;;;15.98;100.00
59650;BME280;46162;57.568;25.814;2023-09-12T06:26:45;100731.75;;;15.93;100.00
59650;BME280;46162;57.568;25.814;2023-09-12T06:29:14;100725.09;;;15.96;100.00
59650;BME280;46162;57.568;25.814;2023-09-12T06:31:43;100722.81;;;15.99;100.00
59650;BME280;46162;57.568;25.814;2023-09-12T06:34:12;100723.59;;;16.08;100.00
59650;BME280;46162;57.568;25.814;2023-09-12T06:36:40;100723.31;;;16.18;100.00
59650;BME280;46162;57.568;25.814;2023-09-12T06:39:12;100723.59;;;16.23;100.00
59650;BME280;46162;57.568;25.814;2023-09-12T06:41:41;100725.56;;;16.29;100.00
59650;BME280;46162;57.568;25.814;2023-09-12T06:44:11;100710.16;;;16.36;100.00
59650;BME280;46162;57.568;25.814;2023-09-12T06:46:42;100719.06;;;16.45;100.00
59650;BME280;46162;57.568;25.814;2023-09-12T06:49:11;100712.00;;;16.50;100.00
59650;BME280;46162;57.568;25.814;2023-09-12T06:51:40;100702.78;;;16.51;100.00
59650;BME280;46162;57.568;25.814;2023-09-12T06:54:09;100696.06;;;16.47;100.00
59650;BME280;46162;57.568;25.814;2023-09-12T06:56:37;100695.94;;;16.55;100.00
59650;BME280;46162;57.568;25.814;2023-09-12T06:59:08;100685.28;;;16.61;100.00
59650;BME280;46162;57.568;25.814;2023-09-12T07:01:41;100683.75;;;16.73;100.00
59650;BME280;46162;57.568;25.814;2023-09-12T07:04:10;100681.81;;;16.82;100.00
59650;BME280;46162;57.568;25.814;2023-09-12T07:06:39;100674.81;;;16.94;100.00
59650;BME280;46162;57.568;25.814;2023-09-12T07:09:09;100675.84;;;16.93;100.00
59650;BME280;46162;57.568;25.814;2023-09-12T07:11:42;100675.13;;;17.06;100.00
59650;BME280;46162;57.568;25.814;2023-09-12T07:14:10;100687.53;;;17.08;100.00
59650;BME280;46162;57.568;25.814;2023-09-12T07:16:40;100691.31;;;17.29;100.00
59650;BME280;46162;57.568;25.814;2023-09-12T07:19:09;100700.72;;;17.26;100.00
59650;BME280;46162;57.568;25.814;2023-09-12T07:21:38;100690.00;;;17.25;100.00
59650;BME280;46162;57.568;25.814;2023-09-12T07:24:07;100687.66;;;17.22;100.00
59650;BME280;46162;57.568;25.814;2023-09-12T07:26:36;100699.16;;;17.17;100.00
59650;BME280;46162;57.568;25.814;2023-09-12T07:29:05;100687.19;;;17.18;100.00
59650;BME280;46162;57.568;25.814;2023-09-12T07:31:34;100685.38;;;17.25;100.00
59650;BME280;46162;57.568;25.814;2023-09-12T07:34:04;100687.78;;;17.35;100.00
59650;BME280;46162;57.568;25.814;2023-09-12T07:36:35;100690.75;;;17.40;100.00
59650;BME280;46162;57.568;25.814;2023-09-12T07:39:04;100694.00;;;17.50;100.00
59650;BME280;46162;57.568;25.814;2023-09-12T07:41:33;100691.31;;;17.57;100.00
59650;BME280;46162;57.568;25.814;2023-09-12T07:44:02;100685.09;;;17.63;100.00
59650;BME280;46162;57.568;25.814;2023-09-12T07:46:32;100689.75;;;17.69;100.00
59650;BME280;46162;57.568;25.814;2023-09-12T07:49:00;100691.97;;;17.80;100.00
59650;BME280;46162;57.568;25.814;2023-09-12T07:51:31;100696.22;;;17.90;100.00
59650;BME280;46162;57.568;25.814;2023-09-12T07:53:59;100701.53;;;17.98;100.00
59650;BME280;46162;57.568;25.814;2023-09-12T07:56:28;100700.19;;;18.15;100.00
59650;BME280;46162;57.568;25.814;2023-09-12T07:58:57;100704.25;;;18.33;100.00
59650;BME280;46162;57.568;25.814;2023-09-12T08:01:26;100703.91;;;18.42;100.00
59650;BME280;46162;57.568;25.814;2023-09-12T08:03:55;100703.72;;;18.51;100.00
59650;BME280;46162;57.568;25.814;2023-09-12T08:06:24;100702.03;;;18.56;100.00
59650;BME280;46162;57.568;25.814;2023-09-12T08:08:54;100695.13;;;18.60;100.00
59650;BME280;46162;57.568;25.814;2023-09-12T08:11:23;100703.78;;;18.70;100.00
59650;BME280;46162;57.568;25.814;2023-09-12T08:13:53;100698.38;;;18.77;100.00
59650;BME280;46162;57.568;25.814;2023-09-12T08:16:24;100704.91;;;18.83;100.00
59650;BME280;46162;57.568;25.814;2023-09-12T08:18:53;100702.66;;;19.00;100.00
59650;BME280;46162;57.568;25.814;2023-09-12T08:21:22;100709.19;;;19.05;100.00
59650;BME280;46162;57.568;25.814;2023-09-12T08:23:50;100714.28;;;19.22;100.00
59650;BME280;46162;57.568;25.814;2023-09-12T08:26:21;100707.75;;;19.23;100.00
59650;BME280;46162;57.568;25.814;2023-09-12T08:28:49;100706.50;;;19.32;100.00
59650;BME280;46162;57.568;25.814;2023-09-12T08:31:18;100719.97;;;19.47;100.00
59650;BME280;46162;57.568;25.814;2023-09-12T08:33:48;100720.19;;;19.45;100.00
59650;BME280;46162;57.568;25.814;2023-09-12T08:36:16;100717.44;;;19.45;100.00
59650;BME280;46162;57.568;25.814;2023-09-12T08:38:47;100720.59;;;19.42;100.00
59650;BME280;46162;57.568;25.814;2023-09-12T08:41:16;100722.94;;;19.39;100.00
59650;BME280;46162;57.568;25.814;2023-09-12T08:43:47;100718.94;;;19.41;100.00
59650;BME280;46162;57.568;25.814;2023-09-12T08:46:16;100705.84;;;19.43;100.00
59650;BME280;46162;57.568;25.814;2023-09-12T08:48:47;100703.31;;;19.48;100.00
59650;BME280;46162;57.568;25.814;2023-09-12T08:51:18;100706.28;;;19.47;100.00
59650;BME280;46162;57.568;25.814;2023-09-12T08:53:47;100710.72;;;19.54;100.00
59650;BME280;46162;57.568;25.814;2023-09-12T08:56:16;100713.22;;;19.63;100.00
59650;BME280;46162;57.568;25.814;2023-09-12T08:58:46;100712.00;;;19.72;100.00
59650;BME280;46162;57.568;25.814;2023-09-12T09:01:16;100716.22;;;19.81;100.00
59650;BME280;46162;57.568;25.814;2023-09-12T09:03:47;100709.44;;;19.90;100.00
59650;BME280;46162;57.568;25.814;2023-09-12T09:06:17;100705.44;;;20.00;100.00
59650;BME280;46162;57.568;25.814;2023-09-12T09:08:47;100705.00;;;20.09;100.00
59650;BME280;46162;57.568;25.814;2023-09-12T09:11:16;100713.66;;;20.13;100.00
59650;BME280;46162;57.568;25.814;2023-09-12T09:13:46;100710.69;;;20.21;100.00
59650;BME280;46162;57.568;25.814;2023-09-12T09:16:16;100711.91;;;20.32;100.00
59650;BME280;46162;57.568;25.814;2023-09-12T09:18:53;100714.00;;;20.30;100.00
59650;BME280;46162;57.568;25.814;2023-09-12T09:21:23;100705.59;;;20.25;100.00
59650;BME280;46162;57.568;25.814;2023-09-12T09:23:52;100711.50;;;20.28;100.00
59650;BME280;46162;57.568;25.814;2023-09-12T09:26:22;100711.06;;;20.31;100.00
59650;BME280;46162;57.568;25.814;2023-09-12T09:29:06;100708.13;;;20.33;100.00
59650;BME280;46162;57.568;25.814;2023-09-12T09:31:40;100718.66;;;20.36;100.00
59650;BME280;46162;57.568;25.814;2023-09-12T09:34:13;100718.63;;;20.43;100.00
59650;BME280;46162;57.568;25.814;2023-09-12T09:36:44;100709.97;;;20.46;100.00
59650;BME280;46162;57.568;25.814;2023-09-12T09:39:16;100713.25;;;20.74;100.00
59650;BME280;46162;57.568;25.814;2023-09-12T09:41:47;100715.13;;;20.80;100.00
59650;BME280;46162;57.568;25.814;2023-09-12T09:44:18;100708.16;;;20.85;100.00
59650;BME280;46162;57.568;25.814;2023-09-12T09:46:52;100709.56;;;20.94;100.00
59650;BME280;46162;57.568;25.814;2023-09-12T09:49:21;100706.75;;;21.07;100.00
59650;BME280;46162;57.568;25.814;2023-09-12T09:51:50;100709.22;;;21.15;100.00
59650;BME280;46162;57.568;25.814;2023-09-12T09:54:18;100713.06;;;21.08;100.00
59650;BME280;46162;57.568;25.814;2023-09-12T09:56:48;100714.06;;;21.20;100.00
59650;BME280;46162;57.568;25.814;2023-09-12T09:59:21;100709.22;;;21.15;100.00
59650;BME280;46162;57.568;25.814;2023-09-12T10:01:52;100705.16;;;21.24;100.00
59650;BME280;46162;57.568;25.814;2023-09-12T10:04:26;100711.53;;;21.18;100.00
59650;BME280;46162;57.568;25.814;2023-09-12T10:06:57;100701.00;;;21.47;100.00
59650;BME280;46162;57.568;25.814;2023-09-12T10:09:26;100704.19;;;21.44;100.00
59650;BME280;46162;57.568;25.814;2023-09-12T10:11:57;100703.41;;;21.62;100.00
59650;BME280;46162;57.568;25.814;2023-09-12T10:14:28;100698.81;;;21.56;100.00
59650;BME280;46162;57.568;25.814;2023-09-12T10:17:01;100705.75;;;21.58;100.00
59650;BME280;46162;57.568;25.814;2023-09-12T10:19:38;100696.47;;;21.59;100.00
59650;BME280;46162;57.568;25.814;2023-09-12T10:22:16;100696.00;;;21.62;100.00
59650;BME280;46162;57.568;25.814;2023-09-12T10:24:46;100708.06;;;21.61;100.00
59650;BME280;46162;57.568;25.814;2023-09-12T10:27:19;100698.19;;;21.54;100.00
59650;BME280;46162;57.568;25.814;2023-09-12T10:29:49;100696.56;;;21.46;100.00
59650;BME280;46162;57.568;25.814;2023-09-12T10:32:21;100703.50;;;21.48;100.00
59650;BME280;46162;57.568;25.814;2023-09-12T10:34:51;100699.09;;;21.47;100.00
59650;BME280;46162;57.568;25.814;2023-09-12T10:37:22;100696.94;;;21.56;100.00
59650;BME280;46162;57.568;25.814;2023-09-12T10:39:53;100705.88;;;21.45;100.00
59650;BME280;46162;57.568;25.814;2023-09-12T10:42:23;100701.91;;;21.34;100.00
59650;BME280;46162;57.568;25.814;2023-09-12T10:44:54;100698.09;;;21.42;100.00
59650;BME280;46162;57.568;25.814;2023-09-12T10:47:23;100696.81;;;21.38;100.00
59650;BME280;46162;57.568;25.814;2023-09-12T10:49:52;100701.25;;;21.39;100.00
59650;BME280;46162;57.568;25.814;2023-09-12T10:52:25;100706.38;;;21.29;100.00
59650;BME280;46162;57.568;25.814;2023-09-12T10:54:54;100702.59;;;21.30;100.00
59650;BME280;46162;57.568;25.814;2023-09-12T10:57:24;100695.38;;;21.29;100.00
59650;BME280;46162;57.568;25.814;2023-09-12T11:00:14;100700.00;;;21.41;100.00
59650;BME280;46162;57.568;25.814;2023-09-12T11:02:42;100702.06;;;21.46;100.00
59650;BME280;46162;57.568;25.814;2023-09-12T11:05:37;100705.50;;;21.41;100.00
59650;BME280;46162;57.568;25.814;2023-09-12T11:08:06;100699.47;;;21.51;100.00
59650;BME280;46162;57.568;25.814;2023-09-12T11:10:34;100702.91;;;21.46;100.00
59650;BME280;46162;57.568;25.814;2023-09-12T11:13:04;100702.00;;;21.53;100.00
59650;BME280;46162;57.568;25.814;2023-09-12T11:15:34;100698.59;;;21.57;100.00
59650;BME280;46162;57.568;25.814;2023-09-12T11:18:06;100702.75;;;21.66;100.00
59650;BME280;46162;57.568;25.814;2023-09-12T11:20:52;100698.09;;;21.67;100.00
59650;BME280;46162;57.568;25.814;2023-09-12T11:23:21;100703.53;;;21.74;100.00
59650;BME280;46162;57.568;25.814;2023-09-12T11:26:03;100694.34;;;21.61;100.00
59650;BME280;46162;57.568;25.814;2023-09-12T11:28:33;100695.22;;;21.55;100.00
59650;BME280;46162;57.568;25.814;2023-09-12T11:31:04;100700.25;;;21.58;100.00
59650;BME280;46162;57.568;25.814;2023-09-12T11:33:33;100702.84;;;21.53;100.00
59650;BME280;46162;57.568;25.814;2023-09-12T11:36:02;100701.97;;;21.59;100.00
59650;BME280;46162;57.568;25.814;2023-09-12T11:38:37;100703.16;;;21.63;100.00
59650;BME280;46162;57.568;25.814;2023-09-12T11:41:06;100701.50;;;21.62;100.00
59650;BME280;46162;57.568;25.814;2023-09-12T11:43:37;100694.66;;;21.72;100.00
59650;BME280;46162;57.568;25.814;2023-09-12T11:46:09;100701.66;;;21.67;100.00
59650;BME280;46162;57.568;25.814;2023-09-12T11:48:38;100695.81;;;21.82;100.00
59650;BME280;46162;57.568;25.814;2023-09-12T11:51:07;100698.63;;;21.76;100.00
59650;BME280;46162;57.568;25.814;2023-09-12T11:53:36;100695.63;;;21.84;100.00
59650;BME280;46162;57.568;25.814;2023-09-12T11:56:05;100696.75;;;21.76;100.00
59650;BME280;46162;57.568;25.814;2023-09-12T11:58:35;100689.09;;;21.78;100.00
59650;BME280;46162;57.568;25.814;2023-09-12T12:01:03;100698.09;;;21.67;100.00
59650;BME280;46162;57.568;25.814;2023-09-12T12:03:34;100692.19;;;21.63;100.00
59650;BME280;46162;57.568;25.814;2023-09-12T12:06:02;100698.31;;;21.65;100.00
59650;BME280;46162;57.568;25.814;2023-09-12T12:08:33;100690.97;;;21.59;100.00
59650;BME280;46162;57.568;25.814;2023-09-12T12:11:03;100688.16;;;21.66;100.00
59650;BME280;46162;57.568;25.814;2023-09-12T12:13:33;100691.63;;;21.80;100.00
59650;BME280;46162;57.568;25.814;2023-09-12T12:16:14;100691.25;;;21.76;100.00
59650;BME280;46162;57.568;25.814;2023-09-12T12:18:45;100689.34;;;21.77;100.00
59650;BME280;46162;57.568;25.814;2023-09-12T12:21:14;100693.28;;;21.81;100.00
59650;BME280;46162;57.568;25.814;2023-09-12T12:23:43;100691.31;;;21.88;100.00
59650;BME280;46162;57.568;25.814;2023-09-12T12:26:12;100690.28;;;21.89;100.00
59650;BME280;46162;57.568;25.814;2023-09-12T12:28:41;100696.56;;;21.96;100.00
59650;BME280;46162;57.568;25.814;2023-09-12T12:31:10;100685.56;;;21.96;100.00
59650;BME280;46162;57.568;25.814;2023-09-12T12:33:39;100683.19;;;22.00;100.00
59650;BME280;46162;57.568;25.814;2023-09-12T12:36:29;100681.88;;;22.02;100.00
59650;BME280;46162;57.568;25.814;2023-09-12T12:39:02;100671.81;;;21.96;100.00
59650;BME280;46162;57.568;25.814;2023-09-12T12:41:32;100685.25;;;21.86;100.00
59650;BME280;46162;57.568;25.814;2023-09-12T12:44:18;100676.13;;;21.85;100.00
59650;BME280;46162;57.568;25.814;2023-09-12T12:46:49;100673.47;;;21.79;100.00